createdAt,value
2023-05-15T00:01:50.751Z,14.92
2023-05-15T00:04:17.372Z,14.88
2023-05-15T00:06:44.178Z,14.85
2023-05-15T00:09:10.770Z,14.82
2023-05-15T00:11:37.412Z,14.70
2023-05-15T00:14:04.025Z,14.61
2023-05-15T00:16:30.701Z,14.61
2023-05-15T00:18:57.347Z,14.52
2023-05-15T00:21:24.012Z,14.49
2023-05-15T00:23:54.008Z,14.43
2023-05-15T00:26:23.275Z,14.38
2023-05-15T00:28:50.751Z,14.16
2023-05-15T00:31:17.508Z,14.11
2023-05-15T00:33:44.251Z,14.06
2023-05-15T00:36:10.929Z,14.05
2023-05-15T00:38:37.545Z,14.14
2023-05-15T00:41:06.378Z,14.16
2023-05-15T00:43:33.473Z,14.11
2023-05-15T00:46:01.972Z,14.06
2023-05-15T00:48:29.537Z,14.05
2023-05-15T00:50:58.999Z,14.11
2023-05-15T00:53:27.291Z,14.18
2023-05-15T00:55:57.353Z,14.17
2023-05-15T00:58:26.888Z,14.07
2023-05-15T01:00:53.883Z,13.97
2023-05-15T01:03:20.730Z,13.90
2023-05-15T01:05:47.562Z,13.84
2023-05-15T01:08:37.747Z,13.87
2023-05-15T01:11:08.112Z,13.71
2023-05-15T01:13:34.963Z,13.58
2023-05-15T01:16:01.936Z,13.43
2023-05-15T01:18:32.431Z,13.40
2023-05-15T01:21:26.586Z,13.34
2023-05-15T01:24:32.207Z,13.32
2023-05-15T01:27:18.759Z,13.29
2023-05-15T01:30:18.930Z,13.24
2023-05-15T01:33:12.044Z,13.37
2023-05-15T01:35:43.832Z,13.28
2023-05-15T01:38:32.844Z,13.26
2023-05-15T01:41:06.153Z,13.17
2023-05-15T01:43:35.242Z,13.14
2023-05-15T01:46:02.984Z,13.05
2023-05-15T01:48:32.660Z,12.96
2023-05-15T01:51:01.742Z,12.82
2023-05-15T01:53:32.067Z,12.83
2023-05-15T01:55:59.784Z,12.92
2023-05-15T01:58:28.162Z,12.99
2023-05-15T02:00:56.424Z,12.99
2023-05-15T02:03:23.727Z,12.92
2023-05-15T02:05:51.920Z,12.89
2023-05-15T02:08:20.582Z,12.86
2023-05-15T02:10:47.993Z,12.80
2023-05-15T02:13:16.892Z,12.70
2023-05-15T02:15:43.453Z,12.57
2023-05-15T02:18:10.118Z,12.52
2023-05-15T02:20:36.743Z,12.53
2023-05-15T02:23:03.331Z,12.57
2023-05-15T02:25:50.046Z,12.60
2023-05-15T02:28:33.931Z,12.53
2023-05-15T02:31:11.910Z,12.48
2023-05-15T02:33:55.810Z,12.43
2023-05-15T02:36:30.771Z,12.44
2023-05-15T02:38:59.550Z,12.38
2023-05-15T02:41:27.127Z,12.32
2023-05-15T02:43:55.516Z,12.37
2023-05-15T02:46:25.090Z,12.33
2023-05-15T02:48:54.074Z,12.23
2023-05-15T02:51:21.157Z,12.25
2023-05-15T02:53:48.563Z,12.27
2023-05-15T02:56:15.085Z,12.15
2023-05-15T02:58:42.104Z,12.04
2023-05-15T03:01:08.849Z,12.07
2023-05-15T03:03:35.584Z,12.00
2023-05-15T03:06:02.696Z,11.99
2023-05-15T03:08:29.376Z,12.10
2023-05-15T03:10:56.205Z,12.12
2023-05-15T03:13:22.852Z,12.13
2023-05-15T03:15:49.527Z,12.02
2023-05-15T03:18:18.950Z,11.91
2023-05-15T03:20:45.898Z,12.06
2023-05-15T03:23:12.483Z,12.14
2023-05-15T03:25:39.035Z,12.11
2023-05-15T03:28:05.783Z,11.92
2023-05-15T03:30:32.395Z,11.93
2023-05-15T03:32:59.172Z,11.90
2023-05-15T03:35:27.071Z,11.86
2023-05-15T03:37:53.756Z,11.81
2023-05-15T03:40:20.457Z,11.81
2023-05-15T03:42:47.038Z,11.69
2023-05-15T03:45:13.694Z,11.80
2023-05-15T03:47:41.087Z,11.92
2023-05-15T03:50:07.946Z,11.97
2023-05-15T03:52:34.613Z,12.03
2023-05-15T03:55:01.663Z,11.96
2023-05-15T03:57:28.452Z,11.93
2023-05-15T03:59:55.110Z,11.92
2023-05-15T04:02:21.810Z,11.82
2023-05-15T04:04:48.762Z,11.82
2023-05-15T04:07:15.448Z,11.95
2023-05-15T04:09:41.999Z,11.96
2023-05-15T04:12:08.747Z,11.93
2023-05-15T04:14:35.546Z,11.78
2023-05-15T04:17:02.143Z,11.59
2023-05-15T04:19:28.790Z,11.73
2023-05-15T04:21:55.445Z,11.81
2023-05-15T04:24:22.084Z,11.88
2023-05-15T04:26:48.734Z,11.81
2023-05-15T04:29:15.614Z,11.83
2023-05-15T04:31:42.226Z,11.73
2023-05-15T04:34:08.919Z,11.74
2023-05-15T04:36:35.524Z,11.72
2023-05-15T04:39:02.099Z,11.95
2023-05-15T04:41:28.697Z,12.01
2023-05-15T04:43:55.419Z,12.05
2023-05-15T04:46:22.005Z,12.02
2023-05-15T04:48:48.604Z,11.97
2023-05-15T04:51:15.319Z,11.93
2023-05-15T04:53:41.964Z,11.96
2023-05-15T04:56:08.538Z,12.16
2023-05-15T04:58:35.474Z,12.11
2023-05-15T05:01:03.842Z,12.21
2023-05-15T05:03:31.117Z,12.23
2023-05-15T05:05:57.785Z,12.04
2023-05-15T05:08:24.375Z,12.20
2023-05-15T05:10:56.280Z,12.36
2023-05-15T05:13:22.918Z,12.54
2023-05-15T05:15:49.507Z,12.67
2023-05-15T05:18:16.213Z,12.68
2023-05-15T05:20:42.834Z,12.62
2023-05-15T05:23:09.458Z,12.70
2023-05-15T05:25:36.057Z,12.78
2023-05-15T05:28:02.702Z,12.92
2023-05-15T05:30:29.269Z,13.04
2023-05-15T05:32:56.090Z,12.97
2023-05-15T05:35:22.975Z,13.19
2023-05-15T05:37:49.688Z,13.32
2023-05-15T05:40:17.625Z,13.28
2023-05-15T05:42:44.289Z,13.42
2023-05-15T05:45:11.423Z,13.45
2023-05-15T05:47:38.118Z,13.63
2023-05-15T05:50:05.546Z,13.67
2023-05-15T05:52:32.324Z,13.61
2023-05-15T05:54:58.984Z,13.66
2023-05-15T05:57:25.951Z,13.72
2023-05-15T05:59:52.697Z,13.79
2023-05-15T06:02:19.584Z,13.84
2023-05-15T06:04:46.411Z,13.94
2023-05-15T06:07:13.031Z,13.82
2023-05-15T06:09:39.722Z,13.87
2023-05-15T06:12:08.371Z,13.90
2023-05-15T06:14:35.949Z,13.91
2023-05-15T06:17:02.673Z,13.95
2023-05-15T06:19:29.552Z,14.16
2023-05-15T06:21:56.117Z,14.25
2023-05-15T06:24:22.642Z,14.17
2023-05-15T06:26:50.451Z,13.86
2023-05-15T06:29:17.884Z,13.61
2023-05-15T06:31:44.416Z,13.86
2023-05-15T06:34:11.015Z,14.11
2023-05-15T06:36:37.730Z,14.14
2023-05-15T06:39:04.332Z,14.46
2023-05-15T06:41:32.024Z,14.69
2023-05-15T06:43:59.644Z,14.52
2023-05-15T06:46:26.320Z,14.50
2023-05-15T06:48:52.918Z,14.74
2023-05-15T06:51:19.604Z,14.88
2023-05-15T06:53:46.445Z,15.04
2023-05-15T06:56:13.041Z,15.01
2023-05-15T06:58:39.623Z,15.05
2023-05-15T07:01:07.123Z,15.07
2023-05-15T07:03:34.144Z,15.14
2023-05-15T07:06:00.792Z,15.04
2023-05-15T07:08:27.451Z,15.14
2023-05-15T07:10:54.039Z,15.20
2023-05-15T07:13:21.236Z,14.93
2023-05-15T07:15:47.877Z,15.10
2023-05-15T07:18:14.517Z,15.37
2023-05-15T07:20:41.156Z,15.41
2023-05-15T07:23:07.698Z,15.34
2023-05-15T07:25:34.376Z,15.54
2023-05-15T07:28:00.938Z,15.80
2023-05-15T07:30:27.720Z,15.74
2023-05-15T07:32:54.504Z,15.98
2023-05-15T07:35:21.135Z,16.09
2023-05-15T07:37:47.771Z,16.18
2023-05-15T07:40:15.567Z,16.27
2023-05-15T07:42:44.627Z,16.24
2023-05-15T07:45:11.438Z,16.30
2023-05-15T07:47:38.170Z,16.23
2023-05-15T07:50:05.249Z,16.33
2023-05-15T07:52:31.906Z,16.63
2023-05-15T07:54:58.450Z,16.72
2023-05-15T07:57:26.438Z,16.74
2023-05-15T07:59:53.194Z,16.77
2023-05-15T08:02:19.804Z,16.77
2023-05-15T08:04:46.540Z,16.86
2023-05-15T08:07:14.317Z,17.08
2023-05-15T08:09:41.378Z,17.09
2023-05-15T08:12:23.215Z,17.20
2023-05-15T08:14:50.268Z,17.57
2023-05-15T08:17:17.271Z,17.44
2023-05-15T08:19:43.896Z,17.29
2023-05-15T08:22:10.776Z,17.14
2023-05-15T08:24:38.207Z,16.95
2023-05-15T08:27:06.181Z,17.18
2023-05-15T08:29:33.431Z,17.10
2023-05-15T08:31:59.995Z,16.93
2023-05-15T08:34:27.150Z,17.09
2023-05-15T08:36:53.786Z,16.95
2023-05-15T08:39:20.497Z,17.19
2023-05-15T08:41:53.237Z,17.26
2023-05-15T08:44:21.143Z,17.60
2023-05-15T08:46:47.931Z,17.72
2023-05-15T08:50:00.519Z,17.69
2023-05-15T08:52:28.654Z,17.82
2023-05-15T08:54:55.286Z,17.70
2023-05-15T08:57:22.582Z,17.71
2023-05-15T08:59:51.152Z,17.57
2023-05-15T09:02:18.649Z,17.52
2023-05-15T09:04:45.396Z,17.82
2023-05-15T09:07:12.299Z,18.01
2023-05-15T09:09:39.855Z,18.11
2023-05-15T09:12:13.135Z,18.08
2023-05-15T09:14:39.984Z,18.01
2023-05-15T09:17:06.667Z,18.23
2023-05-15T09:19:42.583Z,18.49
2023-05-15T09:22:24.224Z,18.83
2023-05-15T09:24:53.202Z,18.47
2023-05-15T09:27:20.592Z,18.05
2023-05-15T09:29:47.335Z,18.11
2023-05-15T09:32:14.841Z,18.21
2023-05-15T09:34:44.308Z,18.66
2023-05-15T09:37:11.559Z,18.39
2023-05-15T09:39:43.117Z,18.51
2023-05-15T09:42:11.719Z,19.12
2023-05-15T09:44:46.254Z,19.07
2023-05-15T09:47:14.197Z,19.03
2023-05-15T09:49:44.672Z,18.74
2023-05-15T09:52:11.580Z,18.69
2023-05-15T09:54:38.718Z,18.73
2023-05-15T09:57:10.417Z,18.44
2023-05-15T09:59:43.762Z,18.19
2023-05-15T10:02:14.427Z,18.26
2023-05-15T10:04:41.031Z,18.41
2023-05-15T10:07:08.948Z,18.58
2023-05-15T10:09:35.597Z,18.72
2023-05-15T10:12:02.905Z,18.76
2023-05-15T10:14:31.495Z,19.21
2023-05-15T10:16:58.080Z,18.91
2023-05-15T10:19:27.580Z,17.99
2023-05-15T10:21:58.621Z,18.61
2023-05-15T10:24:28.359Z,18.93
2023-05-15T10:26:55.904Z,18.96
2023-05-15T10:29:26.716Z,19.27
2023-05-15T10:31:54.061Z,19.38
2023-05-15T10:34:21.381Z,19.80
2023-05-15T10:36:49.822Z,18.98
2023-05-15T10:39:16.804Z,19.00
2023-05-15T10:41:45.857Z,19.24
2023-05-15T10:44:14.754Z,18.98
2023-05-15T10:46:41.517Z,19.24
2023-05-15T10:49:08.342Z,19.16
2023-05-15T10:51:37.626Z,19.45
2023-05-15T10:54:04.373Z,19.73
2023-05-15T10:56:32.276Z,19.93
2023-05-15T10:59:06.038Z,19.95
2023-05-15T11:01:35.658Z,20.06
2023-05-15T11:04:12.102Z,19.91
2023-05-15T11:06:44.296Z,19.79
2023-05-15T11:09:36.305Z,20.12
2023-05-15T11:12:04.729Z,20.40
2023-05-15T11:14:33.988Z,20.50
2023-05-15T11:17:04.071Z,20.71
2023-05-15T11:19:58.237Z,19.85
2023-05-15T11:22:28.945Z,20.17
2023-05-15T11:24:58.412Z,20.50
2023-05-15T11:27:27.118Z,20.76
2023-05-15T11:30:21.884Z,21.11
2023-05-15T11:32:48.470Z,21.09
2023-05-15T11:35:23.118Z,20.90
2023-05-15T11:38:11.025Z,21.30
2023-05-15T11:40:56.462Z,21.33
2023-05-15T11:43:27.898Z,20.64
2023-05-15T11:45:58.431Z,20.71
2023-05-15T11:48:31.368Z,21.43
2023-05-15T11:50:58.100Z,21.18
2023-05-15T11:53:25.118Z,21.05
2023-05-15T11:55:54.143Z,20.81
2023-05-15T11:58:22.510Z,21.02
2023-05-15T12:00:51.368Z,21.81
2023-05-15T12:03:23.952Z,20.80
2023-05-15T12:05:58.908Z,20.37
2023-05-15T12:08:32.003Z,21.14
2023-05-15T12:10:59.191Z,20.80
2023-05-15T12:13:26.082Z,21.26
2023-05-15T12:15:55.338Z,21.93
2023-05-15T12:18:21.837Z,21.91
2023-05-15T12:20:51.233Z,21.99
2023-05-15T12:23:18.053Z,21.79
2023-05-15T12:25:47.347Z,22.33
2023-05-15T12:28:14.496Z,22.26
2023-05-15T12:30:42.903Z,21.63
2023-05-15T12:33:10.810Z,22.23
2023-05-15T12:35:42.360Z,22.52
2023-05-15T12:38:13.890Z,22.46
2023-05-15T12:40:40.840Z,22.82
2023-05-15T12:43:08.378Z,23.17
2023-05-15T12:45:41.362Z,22.10
2023-05-15T12:48:08.141Z,22.06
2023-05-15T12:50:35.840Z,22.07
2023-05-15T12:53:04.626Z,21.86
2023-05-15T12:55:36.596Z,21.63
2023-05-15T12:58:12.413Z,21.59
2023-05-15T13:00:41.611Z,22.11
2023-05-15T13:03:10.957Z,22.69
2023-05-15T13:05:38.727Z,22.72
2023-05-15T13:08:09.099Z,22.69
2023-05-15T13:10:38.042Z,22.61
2023-05-15T13:13:04.677Z,22.96
2023-05-15T13:15:36.278Z,22.97
2023-05-15T13:18:07.937Z,23.03
2023-05-15T13:20:37.242Z,22.58
2023-05-15T13:23:03.792Z,23.27
2023-05-15T13:25:32.173Z,22.74
2023-05-15T13:28:01.683Z,23.34
2023-05-15T13:30:28.431Z,23.26
2023-05-15T13:32:55.911Z,23.32
2023-05-15T13:35:23.505Z,22.34
2023-05-15T13:37:50.337Z,22.59
2023-05-15T13:40:17.175Z,23.37
2023-05-15T13:42:44.311Z,23.39
2023-05-15T13:45:15.429Z,22.98
2023-05-15T13:47:43.196Z,22.49
2023-05-15T13:50:12.320Z,22.68
2023-05-15T13:52:40.143Z,22.62
2023-05-15T13:55:09.764Z,23.19
2023-05-15T13:57:37.982Z,23.56
2023-05-15T14:00:13.179Z,22.88
2023-05-15T14:02:41.617Z,23.23
2023-05-15T14:05:09.278Z,23.14
2023-05-15T14:07:36.321Z,22.98
2023-05-15T14:10:04.011Z,22.99
2023-05-15T14:12:31.046Z,22.95
2023-05-15T14:14:57.967Z,22.94
2023-05-15T14:17:24.977Z,22.99
2023-05-15T14:19:52.112Z,23.21
2023-05-15T14:22:18.778Z,23.42
2023-05-15T14:24:45.411Z,23.60
2023-05-15T14:27:12.002Z,23.41
2023-05-15T14:29:39.443Z,24.07
2023-05-15T14:32:06.579Z,23.54
2023-05-15T14:34:34.029Z,23.66
2023-05-15T14:37:00.664Z,23.78
2023-05-15T14:39:27.284Z,23.50
2023-05-15T14:41:53.886Z,22.83
2023-05-15T14:44:20.605Z,23.33
2023-05-15T14:46:47.290Z,23.06
2023-05-15T14:49:14.118Z,23.40
2023-05-15T14:51:40.750Z,23.12
2023-05-15T14:54:07.394Z,22.92
2023-05-15T14:56:33.976Z,23.44
2023-05-15T14:59:01.047Z,23.41
2023-05-15T15:01:27.665Z,23.36
2023-05-15T15:03:54.447Z,23.13
2023-05-15T15:06:21.219Z,23.03
2023-05-15T15:08:47.811Z,22.92
2023-05-15T15:11:14.500Z,22.86
2023-05-15T15:13:41.131Z,23.08
2023-05-15T15:16:08.254Z,23.47
2023-05-15T15:18:34.976Z,23.42
2023-05-15T15:21:01.892Z,22.94
2023-05-15T15:23:28.535Z,23.60
2023-05-15T15:25:55.200Z,23.25
2023-05-15T15:28:21.741Z,23.00
2023-05-15T15:30:48.385Z,22.76
2023-05-15T15:33:15.086Z,22.50
2023-05-15T15:35:41.835Z,22.59
2023-05-15T15:38:11.411Z,22.44
2023-05-15T15:40:37.993Z,22.41
2023-05-15T15:43:04.579Z,23.13
2023-05-15T15:45:31.288Z,23.09
2023-05-15T15:47:57.879Z,23.05
2023-05-15T15:50:24.807Z,23.34
2023-05-15T15:52:51.711Z,22.86
2023-05-15T15:55:18.302Z,22.92
2023-05-15T15:57:45.093Z,22.31
2023-05-15T16:00:12.796Z,21.52
2023-05-15T16:02:42.371Z,21.93
2023-05-15T16:05:09.800Z,22.24
2023-05-15T16:07:37.008Z,22.37
2023-05-15T16:10:12.266Z,21.95
2023-05-15T16:12:40.724Z,22.10
2023-05-15T16:15:21.001Z,22.22
2023-05-15T16:17:52.767Z,22.27
2023-05-15T16:20:20.106Z,22.37
2023-05-15T16:22:46.704Z,22.38
2023-05-15T16:25:13.315Z,22.21
2023-05-15T16:27:39.875Z,21.88
2023-05-15T16:30:07.254Z,21.79
2023-05-15T16:32:34.161Z,21.12
2023-05-15T16:35:01.161Z,21.60
2023-05-15T16:37:28.934Z,21.57
2023-05-15T16:39:55.579Z,21.79
2023-05-15T16:42:22.155Z,21.26
2023-05-15T16:44:51.117Z,21.21
2023-05-15T16:47:17.889Z,21.04
2023-05-15T16:49:45.717Z,20.81
2023-05-15T16:52:13.569Z,20.66
2023-05-15T16:54:41.920Z,20.68
2023-05-15T16:57:08.708Z,20.98
2023-05-15T16:59:35.402Z,21.01
2023-05-15T17:02:02.065Z,20.80
2023-05-15T17:04:33.124Z,20.52
2023-05-15T17:06:59.906Z,20.45
2023-05-15T17:09:26.562Z,20.10
2023-05-15T17:11:53.129Z,20.00
2023-05-15T17:14:19.726Z,19.90
2023-05-15T17:16:46.373Z,20.01
2023-05-15T17:19:13.183Z,20.00
2023-05-15T17:21:39.931Z,19.82
2023-05-15T17:24:06.758Z,20.05
2023-05-15T17:26:33.486Z,19.93
2023-05-15T17:29:00.265Z,19.95
2023-05-15T17:31:29.118Z,20.01
2023-05-15T17:33:55.721Z,20.09
2023-05-15T17:36:22.286Z,19.91
2023-05-15T17:38:48.857Z,19.98
2023-05-15T17:41:15.548Z,19.82
2023-05-15T17:43:42.087Z,19.74
2023-05-15T17:46:08.711Z,19.81
2023-05-15T17:48:36.161Z,19.52
2023-05-15T17:51:02.773Z,19.47
2023-05-15T17:53:29.368Z,19.50
2023-05-15T17:55:55.993Z,19.47
2023-05-15T17:58:22.741Z,19.45
2023-05-15T18:00:51.700Z,19.10
2023-05-15T18:03:18.413Z,18.94
2023-05-15T18:05:46.980Z,18.68
2023-05-15T18:08:14.049Z,18.11
2023-05-15T18:10:40.674Z,18.38
2023-05-15T18:13:07.277Z,18.32
2023-05-15T18:15:35.163Z,17.63
2023-05-15T18:18:02.291Z,17.67
2023-05-15T18:20:29.053Z,17.64
2023-05-15T18:22:55.706Z,17.43
2023-05-15T18:25:22.329Z,16.89
2023-05-15T18:27:48.928Z,16.80
2023-05-15T18:30:18.693Z,16.81
2023-05-15T18:32:45.321Z,16.73
2023-05-15T18:35:12.636Z,16.66
2023-05-15T18:37:39.252Z,16.49
2023-05-15T18:40:06.398Z,16.40
2023-05-15T18:42:32.976Z,16.37
2023-05-15T18:44:59.617Z,16.16
2023-05-15T18:47:26.341Z,16.35
2023-05-15T18:49:52.968Z,16.22
2023-05-15T18:52:20.047Z,16.36
2023-05-15T18:54:47.806Z,16.54
2023-05-15T18:57:14.603Z,16.27
2023-05-15T18:59:41.715Z,16.28
2023-05-15T19:02:09.585Z,16.28
2023-05-15T19:04:36.424Z,16.16
2023-05-15T19:07:03.087Z,16.09
2023-05-15T19:09:29.695Z,16.03
2023-05-15T19:11:56.375Z,15.91
2023-05-15T19:14:22.898Z,16.02
2023-05-15T19:16:49.619Z,16.04
2023-05-15T19:19:16.855Z,15.99
2023-05-15T19:21:43.725Z,15.84
2023-05-15T19:24:10.446Z,15.74
2023-05-15T19:26:36.971Z,15.67
2023-05-15T19:29:03.596Z,15.34
2023-05-15T19:31:31.742Z,15.45
2023-05-15T19:33:59.198Z,15.56
2023-05-15T19:36:25.924Z,15.47
2023-05-15T19:38:52.671Z,15.49
2023-05-15T19:41:19.386Z,15.48
2023-05-15T19:43:46.980Z,15.36
2023-05-15T19:46:13.864Z,15.42
2023-05-15T19:48:40.786Z,15.26
2023-05-15T19:51:07.404Z,15.19
2023-05-15T19:53:34.511Z,15.11
2023-05-15T19:56:01.324Z,15.08
2023-05-15T19:58:27.868Z,15.06
2023-05-15T20:00:54.763Z,14.99
2023-05-15T20:03:22.175Z,14.99
2023-05-15T20:05:48.863Z,15.03
2023-05-15T20:08:17.067Z,14.95
2023-05-15T20:10:44.515Z,14.99
2023-05-15T20:13:11.631Z,14.94
2023-05-15T20:15:39.822Z,15.10
2023-05-15T20:18:07.279Z,15.03
2023-05-15T20:20:35.713Z,15.05
2023-05-15T20:23:02.317Z,14.84
2023-05-15T20:25:29.467Z,14.63
2023-05-15T20:27:58.469Z,14.69
2023-05-15T20:30:27.092Z,14.59
2023-05-15T20:32:53.947Z,14.90
2023-05-15T20:35:20.823Z,14.69
2023-05-15T20:37:47.582Z,14.62
2023-05-15T20:40:15.747Z,14.67
2023-05-15T20:42:43.061Z,14.47
2023-05-15T20:45:10.191Z,14.53
2023-05-15T20:47:36.829Z,14.46
2023-05-15T20:50:03.668Z,14.48
2023-05-15T20:52:30.695Z,14.40
2023-05-15T20:54:57.374Z,14.37
2023-05-15T20:57:24.012Z,14.53
2023-05-15T20:59:50.627Z,14.68
2023-05-15T21:02:17.246Z,14.50
2023-05-15T21:04:44.027Z,14.61
2023-05-15T21:07:11.027Z,14.39
2023-05-15T21:09:37.583Z,14.54
2023-05-15T21:12:04.444Z,14.49
2023-05-15T21:14:31.083Z,14.35
2023-05-15T21:16:57.797Z,14.25
2023-05-15T21:19:24.547Z,14.13
2023-05-15T21:21:51.289Z,13.99
2023-05-15T21:24:18.072Z,14.20
2023-05-15T21:26:44.834Z,14.15
2023-05-15T21:29:11.525Z,14.08
2023-05-15T21:31:38.484Z,14.14
2023-05-15T21:34:05.255Z,14.06
2023-05-15T21:36:31.837Z,14.09
2023-05-15T21:38:58.393Z,13.95
2023-05-15T21:41:26.124Z,13.85
2023-05-15T21:43:53.102Z,13.80
2023-05-15T21:46:19.830Z,13.66
2023-05-15T21:48:46.884Z,13.72
2023-05-15T21:51:13.471Z,13.58
2023-05-15T21:53:40.153Z,13.61
2023-05-15T21:56:07.292Z,13.46
2023-05-15T21:58:33.981Z,13.43
2023-05-15T22:01:00.553Z,13.53
2023-05-15T22:03:27.630Z,13.56
2023-05-15T22:05:54.314Z,13.45
2023-05-15T22:08:21.489Z,13.63
2023-05-15T22:10:49.027Z,13.42
2023-05-15T22:13:15.812Z,13.41
2023-05-15T22:15:42.847Z,13.54
2023-05-15T22:18:09.547Z,13.18
2023-05-15T22:20:36.210Z,13.19
2023-05-15T22:23:02.918Z,13.27
2023-05-15T22:25:29.636Z,13.41
2023-05-15T22:27:56.424Z,13.42
2023-05-15T22:30:23.084Z,13.16
2023-05-15T22:32:49.756Z,13.07
2023-05-15T22:35:16.551Z,12.94
2023-05-15T22:37:45.310Z,12.84
2023-05-15T22:40:15.462Z,12.87
2023-05-15T22:42:42.028Z,12.81
2023-05-15T22:45:09.425Z,12.87
2023-05-15T22:47:36.158Z,12.74
2023-05-15T22:50:02.839Z,12.86
2023-05-15T22:52:29.361Z,12.63
2023-05-15T22:54:55.944Z,12.89
2023-05-15T22:57:23.143Z,12.88
2023-05-15T22:59:49.720Z,12.81
2023-05-15T23:02:16.480Z,12.54
2023-05-15T23:04:43.338Z,12.41
2023-05-15T23:07:09.917Z,12.48
2023-05-15T23:09:36.573Z,12.50
2023-05-15T23:12:04.393Z,12.67
2023-05-15T23:14:31.207Z,12.89
2023-05-15T23:16:57.803Z,12.74
2023-05-15T23:19:24.423Z,12.69
2023-05-15T23:21:51.106Z,12.91
2023-05-15T23:24:17.763Z,13.01
2023-05-15T23:26:44.417Z,12.86
2023-05-15T23:29:11.265Z,12.67
2023-05-15T23:31:39.105Z,12.63
2023-05-15T23:34:06.572Z,12.60
2023-05-15T23:36:33.066Z,12.45
2023-05-15T23:38:59.622Z,12.45
2023-05-15T23:41:26.340Z,12.25
2023-05-15T23:43:52.974Z,12.39
2023-05-15T23:46:19.782Z,12.46
2023-05-15T23:48:46.485Z,12.50
2023-05-15T23:51:13.191Z,12.48
2023-05-15T23:53:39.783Z,12.51
2023-05-15T23:56:07.293Z,12.40
2023-05-15T23:58:34.083Z,12.31
